createdAt,value
2019-04-25T00:02:28.671Z,49.40
2019-04-25T00:04:58.194Z,49.54
2019-04-25T00:07:27.807Z,49.54
2019-04-25T00:09:57.103Z,49.60
2019-04-25T00:12:26.473Z,49.63
2019-04-25T00:14:55.887Z,49.72
2019-04-25T00:17:25.857Z,49.84
2019-04-25T00:19:55.125Z,49.96
2019-04-25T00:22:31.684Z,50.02
2019-04-25T00:25:18.138Z,50.03
2019-04-25T00:27:48.506Z,50.04
2019-04-25T00:30:19.338Z,50.02
2019-04-25T00:32:49.294Z,50.05
2019-04-25T00:35:18.832Z,50.19
2019-04-25T00:37:48.080Z,50.31
2019-04-25T00:40:17.327Z,50.29
2019-04-25T00:42:46.688Z,50.40
2019-04-25T00:45:16.482Z,50.58
2019-04-25T00:47:45.748Z,50.60
2019-04-25T00:50:15.012Z,50.62
2019-04-25T00:52:44.855Z,50.60
2019-04-25T00:55:25.920Z,50.70
2019-04-25T00:57:46.877Z,50.79
2019-04-25T01:00:37.522Z,50.98
2019-04-25T01:03:08.278Z,51.10
2019-04-25T01:05:37.509Z,51.17
2019-04-25T01:08:06.742Z,51.32
2019-04-25T01:10:36.027Z,51.40
2019-04-25T01:13:05.456Z,51.53
2019-04-25T01:15:34.876Z,51.60
2019-04-25T01:18:04.663Z,51.64
2019-04-25T01:20:34.469Z,51.74
2019-04-25T01:23:03.856Z,51.78
2019-04-25T01:25:40.428Z,51.79
2019-04-25T01:28:04.211Z,51.72
2019-04-25T01:30:34.085Z,51.71
2019-04-25T01:33:04.179Z,51.76
2019-04-25T01:35:48.901Z,51.79
2019-04-25T01:38:33.511Z,51.85
2019-04-25T01:41:21.998Z,51.89
2019-04-25T01:44:14.338Z,52.01
2019-04-25T01:46:45.612Z,52.13
2019-04-25T01:49:15.007Z,52.18
2019-04-25T01:51:44.391Z,52.31
2019-04-25T01:54:14.132Z,52.45
2019-04-25T01:56:44.314Z,52.43
2019-04-25T01:59:15.225Z,52.44
2019-04-25T02:01:44.665Z,52.50
2019-04-25T02:04:14.040Z,52.49
2019-04-25T02:06:43.472Z,52.47
2019-04-25T02:09:14.182Z,52.45
2019-04-25T02:12:05.608Z,52.50
2019-04-25T02:14:35.423Z,52.50
2019-04-25T02:17:04.740Z,52.47
2019-04-25T02:19:35.724Z,52.54
2019-04-25T02:22:04.989Z,52.58
2019-04-25T02:24:34.223Z,52.60
2019-04-25T02:27:04.639Z,52.71
2019-04-25T02:29:34.047Z,52.85
2019-04-25T02:32:08.754Z,52.87
2019-04-25T02:34:34.944Z,52.94
2019-04-25T02:37:09.179Z,52.92
2019-04-25T02:39:37.457Z,53.04
2019-04-25T02:42:08.480Z,53.09
2019-04-25T02:44:40.371Z,53.20
2019-04-25T02:47:29.541Z,53.36
2019-04-25T02:50:09.219Z,53.36
2019-04-25T02:52:47.164Z,53.30
2019-04-25T02:55:31.131Z,53.38
2019-04-25T02:57:47.369Z,53.41
2019-04-25T03:00:27.692Z,53.39
2019-04-25T03:02:59.029Z,53.53
2019-04-25T03:05:28.611Z,53.55
2019-04-25T03:07:59.845Z,53.59
2019-04-25T03:10:30.966Z,53.69
2019-04-25T03:13:02.028Z,53.75
2019-04-25T03:15:34.204Z,53.83
2019-04-25T03:18:05.773Z,53.92
2019-04-25T03:20:47.489Z,53.99
2019-04-25T03:23:36.508Z,54.04
2019-04-25T03:26:07.552Z,54.08
2019-04-25T03:28:37.003Z,54.05
2019-04-25T03:31:13.394Z,54.18
2019-04-25T03:33:38.798Z,54.32
2019-04-25T03:36:09.324Z,54.38
2019-04-25T03:38:38.887Z,54.41
2019-04-25T03:41:08.657Z,54.38
2019-04-25T03:43:40.410Z,54.38
2019-04-25T03:46:10.324Z,54.37
2019-04-25T03:48:40.026Z,54.47
2019-04-25T03:51:10.005Z,54.60
2019-04-25T03:53:39.226Z,54.66
2019-04-25T03:56:08.709Z,54.72
2019-04-25T03:58:38.216Z,54.83
2019-04-25T04:01:09.636Z,54.88
2019-04-25T04:03:38.972Z,54.95
2019-04-25T04:06:08.682Z,54.98
2019-04-25T04:08:38.874Z,55.04
2019-04-25T04:11:08.681Z,55.09
2019-04-25T04:13:38.001Z,55.09
2019-04-25T04:16:07.255Z,55.01
2019-04-25T04:18:44.404Z,55.04
2019-04-25T04:21:38.768Z,55.05
2019-04-25T04:24:16.058Z,54.91
2019-04-25T04:27:06.700Z,54.78
2019-04-25T04:29:35.293Z,54.84
2019-04-25T04:32:04.738Z,54.76
2019-04-25T04:34:34.679Z,54.80
2019-04-25T04:37:04.103Z,54.79
2019-04-25T04:39:33.887Z,54.76
2019-04-25T04:42:03.795Z,54.66
2019-04-25T04:44:34.346Z,54.50
2019-04-25T04:47:04.117Z,54.39
2019-04-25T04:49:34.398Z,54.29
2019-04-25T04:52:04.486Z,54.17
2019-04-25T04:54:34.975Z,54.12
2019-04-25T04:57:16.893Z,54.02
2019-04-25T04:59:35.253Z,53.92
2019-04-25T05:02:18.785Z,53.76
2019-04-25T05:05:07.206Z,53.63
2019-04-25T05:07:45.971Z,53.49
2019-04-25T05:10:17.716Z,53.36
2019-04-25T05:12:46.280Z,53.31
2019-04-25T05:15:16.870Z,53.16
2019-04-25T05:17:46.643Z,53.05
2019-04-25T05:20:17.512Z,52.95
2019-04-25T05:22:46.925Z,52.78
2019-04-25T05:25:17.682Z,52.67
2019-04-25T05:27:59.593Z,52.53
2019-04-25T05:30:26.460Z,52.50
2019-04-25T05:32:54.885Z,52.42
2019-04-25T05:35:25.280Z,52.35
2019-04-25T05:37:54.795Z,52.35
2019-04-25T05:40:24.503Z,52.31
2019-04-25T05:43:15.001Z,52.20
2019-04-25T05:45:44.493Z,52.13
2019-04-25T05:48:15.208Z,52.00
2019-04-25T05:50:45.043Z,51.88
2019-04-25T05:53:16.176Z,51.75
2019-04-25T05:55:45.697Z,51.54
2019-04-25T05:58:15.057Z,51.32
2019-04-25T06:00:44.630Z,51.10
2019-04-25T06:03:13.885Z,50.92
2019-04-25T06:05:43.455Z,50.80
2019-04-25T06:08:14.188Z,50.70
2019-04-25T06:11:04.038Z,50.53
2019-04-25T06:13:46.967Z,50.36
2019-04-25T06:16:21.016Z,50.13
2019-04-25T06:19:16.377Z,49.90
2019-04-25T06:21:43.571Z,49.80
2019-04-25T06:24:32.769Z,49.63
2019-04-25T06:27:25.616Z,49.49
2019-04-25T06:30:04.579Z,49.25
2019-04-25T06:32:35.340Z,49.05
2019-04-25T06:35:05.557Z,48.91
2019-04-25T06:37:35.131Z,48.79
2019-04-25T06:40:06.056Z,48.68
2019-04-25T06:42:36.343Z,48.50
2019-04-25T06:45:25.303Z,48.29
2019-04-25T06:48:04.965Z,48.11
2019-04-25T06:50:35.416Z,47.91
2019-04-25T06:53:05.248Z,47.71
2019-04-25T06:55:34.905Z,47.50
2019-04-25T06:58:11.644Z,47.40
2019-04-25T07:00:41.138Z,47.20
2019-04-25T07:03:06.424Z,47.04
2019-04-25T07:05:40.284Z,47.02
2019-04-25T07:08:06.757Z,47.18
2019-04-25T07:10:36.065Z,46.92
2019-04-25T07:13:05.334Z,46.37
2019-04-25T07:15:35.309Z,45.64
2019-04-25T07:18:04.560Z,44.78
2019-04-25T07:20:34.539Z,43.97
2019-04-25T07:23:04.973Z,43.15
2019-04-25T07:25:37.031Z,42.51
2019-04-25T07:28:32.468Z,41.87
2019-04-25T07:31:23.260Z,41.38
2019-04-25T07:33:59.508Z,40.64
2019-04-25T07:36:28.886Z,40.14
2019-04-25T07:39:08.210Z,39.50
2019-04-25T07:41:29.354Z,39.24
2019-04-25T07:43:58.600Z,38.91
2019-04-25T07:46:27.872Z,38.77
2019-04-25T07:48:57.161Z,38.63
2019-04-25T07:51:26.853Z,38.09
2019-04-25T07:53:56.045Z,38.00
2019-04-25T07:56:25.447Z,37.56
2019-04-25T07:58:54.886Z,37.12
2019-04-25T08:01:24.147Z,36.49
2019-04-25T08:03:53.890Z,36.32
2019-04-25T08:06:24.209Z,35.65
2019-04-25T08:08:54.591Z,35.71
2019-04-25T08:11:24.145Z,35.60
2019-04-25T08:14:16.339Z,35.39
2019-04-25T08:16:48.785Z,34.88
2019-04-25T08:19:18.335Z,34.40
2019-04-25T08:21:48.580Z,33.91
2019-04-25T08:24:18.275Z,33.79
2019-04-25T08:26:47.538Z,33.73
2019-04-25T08:29:16.780Z,33.39
2019-04-25T08:31:46.088Z,32.64
2019-04-25T08:34:15.340Z,32.24
2019-04-25T08:36:45.778Z,32.42
2019-04-25T08:39:15.367Z,32.40
2019-04-25T08:41:45.707Z,32.09
2019-04-25T08:44:15.164Z,31.92
2019-04-25T08:46:48.425Z,32.03
2019-04-25T08:49:21.194Z,31.87
2019-04-25T08:51:51.478Z,31.44
2019-04-25T08:54:47.568Z,31.08
2019-04-25T08:57:36.048Z,30.69
2019-04-25T09:00:14.332Z,30.57
2019-04-25T09:02:50.234Z,30.19
2019-04-25T09:05:24.166Z,30.22
2019-04-25T09:07:54.370Z,29.76
2019-04-25T09:10:23.930Z,29.63
2019-04-25T09:12:53.738Z,29.52
2019-04-25T09:15:24.140Z,29.31
2019-04-25T09:17:54.667Z,28.93
2019-04-25T09:20:24.274Z,28.57
2019-04-25T09:22:54.248Z,27.98
2019-04-25T09:25:24.032Z,27.31
2019-04-25T09:27:54.426Z,27.25
2019-04-25T09:30:24.144Z,27.22
2019-04-25T09:32:53.668Z,26.93
2019-04-25T09:35:23.643Z,26.84
2019-04-25T09:37:53.684Z,26.78
2019-04-25T09:40:24.093Z,27.02
2019-04-25T09:42:53.844Z,27.01
2019-04-25T09:45:55.025Z,26.84
2019-04-25T09:48:29.845Z,26.91
2019-04-25T09:51:13.591Z,26.76
2019-04-25T09:53:50.035Z,26.38
2019-04-25T09:56:25.498Z,26.64
2019-04-25T09:59:27.276Z,26.52
2019-04-25T10:01:51.476Z,26.88
2019-04-25T10:04:22.975Z,26.76
2019-04-25T10:06:53.479Z,26.88
2019-04-25T10:09:23.785Z,26.80
2019-04-25T10:11:54.729Z,26.66
2019-04-25T10:14:58.580Z,26.74
2019-04-25T10:17:29.337Z,26.56
2019-04-25T10:19:58.634Z,26.60
2019-04-25T10:22:29.378Z,26.42
2019-04-25T10:25:00.671Z,26.52
2019-04-25T10:27:29.866Z,26.59
2019-04-25T10:30:14.529Z,26.83
2019-04-25T10:32:33.526Z,26.68
2019-04-25T10:35:02.945Z,26.66
2019-04-25T10:37:33.659Z,26.48
2019-04-25T10:40:05.282Z,26.63
2019-04-25T10:42:34.733Z,26.62
2019-04-25T10:45:04.400Z,26.98
2019-04-25T10:47:35.180Z,26.64
2019-04-25T10:50:05.046Z,26.46
2019-04-25T10:52:34.287Z,26.24
2019-04-25T10:55:04.243Z,26.38
2019-04-25T10:57:34.062Z,26.60
2019-04-25T11:00:09.076Z,26.32
2019-04-25T11:02:36.089Z,26.08
2019-04-25T11:05:11.417Z,25.90
2019-04-25T11:07:40.715Z,25.68
2019-04-25T11:10:10.009Z,25.77
2019-04-25T11:12:40.041Z,26.64
2019-04-25T11:15:09.782Z,27.25
2019-04-25T11:17:39.088Z,27.88
2019-04-25T11:20:14.184Z,28.22
2019-04-25T11:22:44.767Z,28.57
2019-04-25T11:25:15.009Z,29.21
2019-04-25T11:27:47.359Z,29.34
2019-04-25T11:30:16.696Z,29.62
2019-04-25T11:32:45.948Z,30.07
2019-04-25T11:35:15.411Z,30.62
2019-04-25T11:37:44.871Z,31.37
2019-04-25T11:40:32.005Z,31.82
2019-04-25T11:43:01.541Z,32.21
2019-04-25T11:45:30.899Z,32.44
2019-04-25T11:48:00.190Z,32.82
2019-04-25T11:50:29.739Z,33.27
2019-04-25T11:52:59.075Z,33.59
2019-04-25T11:55:28.547Z,34.15
2019-04-25T11:57:58.379Z,34.53
2019-04-25T12:00:29.761Z,34.77
2019-04-25T12:02:59.097Z,35.09
2019-04-25T12:05:30.169Z,35.50
2019-04-25T12:07:59.440Z,35.92
2019-04-25T12:10:30.479Z,36.12
2019-04-25T12:12:59.786Z,36.20
2019-04-25T12:15:29.371Z,36.25
2019-04-25T12:17:58.723Z,36.48
2019-04-25T12:20:27.979Z,36.67
2019-04-25T12:23:05.931Z,36.89
2019-04-25T12:25:28.585Z,37.11
2019-04-25T12:27:57.826Z,37.37
2019-04-25T12:30:37.455Z,37.63
2019-04-25T12:32:58.149Z,37.81
2019-04-25T12:35:27.430Z,37.89
2019-04-25T12:37:56.680Z,37.93
2019-04-25T12:40:25.987Z,38.18
2019-04-25T12:42:55.246Z,38.32
2019-04-25T12:45:34.358Z,38.58
2019-04-25T12:48:04.142Z,38.79
2019-04-25T12:50:33.710Z,38.83
2019-04-25T12:53:03.758Z,38.94
2019-04-25T12:55:34.196Z,39.30
2019-04-25T12:58:04.244Z,39.48
2019-04-25T13:00:34.173Z,39.59
2019-04-25T13:03:06.914Z,39.81
2019-04-25T13:05:35.375Z,39.95
2019-04-25T13:08:04.961Z,40.30
2019-04-25T13:10:34.497Z,40.54
2019-04-25T13:13:04.063Z,40.63
2019-04-25T13:15:34.192Z,40.75
2019-04-25T13:18:03.623Z,41.26
2019-04-25T13:20:32.860Z,41.26
2019-04-25T13:23:03.538Z,41.38
2019-04-25T13:25:34.310Z,41.20
2019-04-25T13:28:25.435Z,41.39
2019-04-25T13:31:14.812Z,41.38
2019-04-25T13:33:58.867Z,41.45
2019-04-25T13:36:28.402Z,41.41
2019-04-25T13:38:57.658Z,41.33
2019-04-25T13:41:27.036Z,41.41
2019-04-25T13:43:56.655Z,41.23
2019-04-25T13:46:27.682Z,40.90
2019-04-25T13:48:57.037Z,40.87
2019-04-25T13:51:26.477Z,40.76
2019-04-25T13:53:55.809Z,40.78
2019-04-25T13:56:26.540Z,40.57
2019-04-25T13:58:56.456Z,40.29
2019-04-25T14:01:25.966Z,40.00
2019-04-25T14:03:55.788Z,39.91
2019-04-25T14:06:26.151Z,40.06
2019-04-25T14:08:55.594Z,40.07
2019-04-25T14:11:25.916Z,39.98
2019-04-25T14:13:55.534Z,39.93
2019-04-25T14:16:49.549Z,39.90
2019-04-25T14:19:37.731Z,39.96
2019-04-25T14:22:07.325Z,39.79
2019-04-25T14:24:36.579Z,39.64
2019-04-25T14:27:06.204Z,39.29
2019-04-25T14:29:35.558Z,39.04
2019-04-25T14:32:06.504Z,39.06
2019-04-25T14:34:35.765Z,39.05
2019-04-25T14:37:05.226Z,39.04
2019-04-25T14:39:34.497Z,39.37
2019-04-25T14:42:03.740Z,39.54
2019-04-25T14:44:33.583Z,39.85
2019-04-25T14:47:03.069Z,40.16
2019-04-25T14:49:33.249Z,40.27
2019-04-25T14:52:02.579Z,40.23
2019-04-25T14:54:37.968Z,40.33
2019-04-25T14:57:15.358Z,40.27
2019-04-25T14:59:44.615Z,40.32
2019-04-25T15:02:14.059Z,40.43
2019-04-25T15:04:43.471Z,40.49
2019-04-25T15:07:12.723Z,40.50
2019-04-25T15:09:42.054Z,40.71
2019-04-25T15:12:11.713Z,40.89
2019-04-25T15:14:40.993Z,41.14
2019-04-25T15:17:10.641Z,41.20
2019-04-25T15:19:40.009Z,41.39
2019-04-25T15:22:09.261Z,41.46
2019-04-25T15:24:38.542Z,41.62
2019-04-25T15:27:07.867Z,41.84
2019-04-25T15:29:37.111Z,41.96
2019-04-25T15:32:08.330Z,42.15
2019-04-25T15:34:50.055Z,42.25
2019-04-25T15:37:41.211Z,42.28
2019-04-25T15:40:17.389Z,42.38
2019-04-25T15:43:05.579Z,42.45
2019-04-25T15:45:49.238Z,42.69
2019-04-25T15:48:18.667Z,43.08
2019-04-25T15:50:47.967Z,43.50
2019-04-25T15:53:17.254Z,43.91
2019-04-25T15:55:46.497Z,43.91
2019-04-25T15:58:16.033Z,44.30
2019-04-25T16:00:45.493Z,44.30
2019-04-25T16:03:14.848Z,44.19
2019-04-25T16:05:44.267Z,44.30
2019-04-25T16:08:13.586Z,44.51
2019-04-25T16:10:42.943Z,44.59
2019-04-25T16:13:12.372Z,44.64
2019-04-25T16:15:41.674Z,44.66
2019-04-25T16:18:11.478Z,44.70
2019-04-25T16:20:40.735Z,44.73
2019-04-25T16:23:10.036Z,44.71
2019-04-25T16:25:39.309Z,44.85
2019-04-25T16:28:08.592Z,44.85
2019-04-25T16:30:38.637Z,44.82
2019-04-25T16:33:08.189Z,44.89
2019-04-25T16:35:37.853Z,45.07
2019-04-25T16:38:07.316Z,45.13
2019-04-25T16:40:36.556Z,45.19
2019-04-25T16:43:08.166Z,45.29
2019-04-25T16:45:39.179Z,45.32
2019-04-25T16:48:08.417Z,45.22
2019-04-25T16:50:37.659Z,45.28
2019-04-25T16:53:06.986Z,45.46
2019-04-25T16:55:36.694Z,45.50
2019-04-25T16:58:06.191Z,45.54
2019-04-25T17:00:49.333Z,45.52
2019-04-25T17:03:19.048Z,45.58
2019-04-25T17:05:48.472Z,45.55
2019-04-25T17:08:18.103Z,45.57
2019-04-25T17:10:47.384Z,45.65
2019-04-25T17:13:16.607Z,45.65
2019-04-25T17:16:12.615Z,45.84
2019-04-25T17:18:48.313Z,45.88
2019-04-25T17:21:17.678Z,45.86
2019-04-25T17:23:46.922Z,45.88
2019-04-25T17:26:16.455Z,45.97
2019-04-25T17:28:47.383Z,46.05
2019-04-25T17:31:34.577Z,46.15
2019-04-25T17:34:14.588Z,46.17
2019-04-25T17:37:01.212Z,46.20
2019-04-25T17:39:40.801Z,46.29
2019-04-25T17:42:10.059Z,46.32
2019-04-25T17:44:39.303Z,46.41
2019-04-25T17:47:08.626Z,46.54
2019-04-25T17:49:37.972Z,46.57
2019-04-25T17:52:07.247Z,46.68
2019-04-25T17:54:36.678Z,46.87
2019-04-25T17:57:05.988Z,46.94
2019-04-25T17:59:35.277Z,47.07
2019-04-25T18:02:04.889Z,47.20
2019-04-25T18:04:34.206Z,47.33
2019-04-25T18:07:04.132Z,47.42
2019-04-25T18:09:34.413Z,47.52
2019-04-25T18:12:04.707Z,47.58
2019-04-25T18:14:34.038Z,47.62
2019-04-25T18:17:04.745Z,47.73
2019-04-25T18:20:02.084Z,47.85
2019-04-25T18:22:51.490Z,47.96
2019-04-25T18:25:34.407Z,47.87
2019-04-25T18:28:17.823Z,47.87
2019-04-25T18:30:48.073Z,48.03
2019-04-25T18:33:28.464Z,48.05
2019-04-25T18:36:20.499Z,48.10
2019-04-25T18:38:59.380Z,48.11
2019-04-25T18:41:39.796Z,48.13
2019-04-25T18:44:09.407Z,48.17
2019-04-25T18:46:41.296Z,48.18
2019-04-25T18:49:10.566Z,48.24
2019-04-25T18:51:40.693Z,48.36
2019-04-25T18:54:23.266Z,48.44
2019-04-25T18:57:00.279Z,48.58
2019-04-25T18:59:41.585Z,48.64
2019-04-25T19:02:31.099Z,48.70
2019-04-25T19:05:19.289Z,48.82
2019-04-25T19:07:48.769Z,48.76
2019-04-25T19:10:18.098Z,48.75
2019-04-25T19:12:47.427Z,48.76
2019-04-25T19:15:16.892Z,48.90
2019-04-25T19:17:46.154Z,49.00
2019-04-25T19:20:15.504Z,49.07
2019-04-25T19:22:45.760Z,49.12
2019-04-25T19:25:15.511Z,49.14
2019-04-25T19:27:44.975Z,49.28
2019-04-25T19:30:16.211Z,49.33
2019-04-25T19:32:45.482Z,49.34
2019-04-25T19:35:14.842Z,49.43
2019-04-25T19:37:44.117Z,49.56
2019-04-25T19:40:23.686Z,49.53
2019-04-25T19:42:56.574Z,49.52
2019-04-25T19:45:26.055Z,49.49
2019-04-25T19:47:55.408Z,49.46
2019-04-25T19:50:24.685Z,49.45
2019-04-25T19:52:53.988Z,49.51
2019-04-25T19:55:23.275Z,49.51
2019-04-25T19:57:52.613Z,49.54
2019-04-25T20:00:22.881Z,49.54
2019-04-25T20:03:02.218Z,49.54
2019-04-25T20:05:46.203Z,49.66
2019-04-25T20:08:25.196Z,49.66
2019-04-25T20:10:58.395Z,49.72
2019-04-25T20:13:27.695Z,49.84
2019-04-25T20:15:56.971Z,50.02
2019-04-25T20:18:26.298Z,50.13
2019-04-25T20:20:55.572Z,50.17
2019-04-25T20:23:24.879Z,50.20
2019-04-25T20:25:56.269Z,50.27
2019-04-25T20:28:25.106Z,50.25
2019-04-25T20:30:54.571Z,50.33
2019-04-25T20:33:24.223Z,50.43
2019-04-25T20:35:53.542Z,50.44
2019-04-25T20:38:22.925Z,50.49
2019-04-25T20:40:52.224Z,50.55
2019-04-25T20:43:21.514Z,50.65
2019-04-25T20:45:50.824Z,50.70
2019-04-25T20:48:20.084Z,50.76
2019-04-25T20:50:50.323Z,50.95
2019-04-25T20:53:19.644Z,50.99
2019-04-25T20:55:50.777Z,51.02
2019-04-25T20:58:20.079Z,51.09
2019-04-25T21:00:52.518Z,51.13
2019-04-25T21:03:22.063Z,51.25
2019-04-25T21:05:55.103Z,51.34
2019-04-25T21:08:24.731Z,51.40
2019-04-25T21:10:53.984Z,51.56
2019-04-25T21:13:34.788Z,51.74
2019-04-25T21:16:22.127Z,51.92
2019-04-25T21:18:57.822Z,51.96
2019-04-25T21:21:27.063Z,52.02
2019-04-25T21:23:56.974Z,52.16
2019-04-25T21:26:26.446Z,52.36
2019-04-25T21:28:56.223Z,52.51
2019-04-25T21:31:25.570Z,52.73
2019-04-25T21:33:55.285Z,52.89
2019-04-25T21:36:25.094Z,53.07
2019-04-25T21:38:55.396Z,53.27
2019-04-25T21:41:42.755Z,53.41
2019-04-25T21:44:12.289Z,53.57
2019-04-25T21:46:41.545Z,53.60
2019-04-25T21:49:11.357Z,53.90
2019-04-25T21:51:40.615Z,54.10
2019-04-25T21:54:09.873Z,54.32
2019-04-25T21:56:39.463Z,54.53
2019-04-25T21:59:08.996Z,54.79
2019-04-25T22:01:41.702Z,54.96
2019-04-25T22:04:11.203Z,55.15
2019-04-25T22:06:41.000Z,55.31
2019-04-25T22:09:16.063Z,55.49
2019-04-25T22:11:45.692Z,55.63
2019-04-25T22:14:15.592Z,55.83
2019-04-25T22:16:45.254Z,56.01
2019-04-25T22:19:15.679Z,56.22
2019-04-25T22:21:45.201Z,56.37
2019-04-25T22:24:14.598Z,56.47
2019-04-25T22:26:46.660Z,56.63
2019-04-25T22:29:16.008Z,56.84
2019-04-25T22:31:52.886Z,57.00
2019-04-25T22:34:52.042Z,57.24
2019-04-25T22:37:13.423Z,57.33
2019-04-25T22:39:42.952Z,57.36
2019-04-25T22:42:12.260Z,57.59
2019-04-25T22:44:41.950Z,57.70
2019-04-25T22:47:11.190Z,57.90
2019-04-25T22:49:40.427Z,58.07
2019-04-25T22:52:11.171Z,58.15
2019-04-25T22:54:40.885Z,58.32
2019-04-25T22:57:10.137Z,58.41
2019-04-25T22:59:39.604Z,58.43
2019-04-25T23:02:27.784Z,58.54
2019-04-25T23:05:16.784Z,58.71
2019-04-25T23:07:46.082Z,58.69
2019-04-25T23:10:16.052Z,58.69
2019-04-25T23:12:45.343Z,58.83
2019-04-25T23:15:15.535Z,59.03
2019-04-25T23:17:44.771Z,59.18
2019-04-25T23:20:14.833Z,59.26
2019-04-25T23:22:44.073Z,59.29
2019-04-25T23:25:15.540Z,59.34
2019-04-25T23:28:08.537Z,59.44
2019-04-25T23:30:57.944Z,59.42
2019-04-25T23:33:27.231Z,59.34
2019-04-25T23:35:56.669Z,59.32
2019-04-25T23:38:25.900Z,59.36
2019-04-25T23:40:55.200Z,59.45
2019-04-25T23:43:24.934Z,59.48
2019-04-25T23:45:54.177Z,59.50
2019-04-25T23:48:23.621Z,59.55
2019-04-25T23:50:53.714Z,59.49
2019-04-25T23:53:23.100Z,59.48
2019-04-25T23:55:52.502Z,59.48
2019-04-25T23:58:21.780Z,59.52
